createdAt,value
2023-01-17T00:00:23.105Z,17.25
2023-01-17T00:02:25.337Z,15.45
2023-01-17T00:04:48.803Z,16.65
2023-01-17T00:07:09.657Z,20.30
2023-01-17T00:09:30.856Z,15.88
2023-01-17T00:11:32.893Z,15.73
2023-01-17T00:13:34.929Z,15.85
2023-01-17T00:15:40.015Z,15.98
2023-01-17T00:17:42.224Z,15.85
2023-01-17T00:20:02.717Z,16.15
2023-01-17T00:22:41.738Z,14.90
2023-01-17T00:25:03.997Z,14.75
2023-01-17T00:27:15.027Z,16.20
2023-01-17T00:29:17.046Z,15.70
2023-01-17T00:31:19.102Z,16.50
2023-01-17T00:33:22.111Z,16.38
2023-01-17T00:35:25.137Z,15.57
2023-01-17T00:37:27.088Z,15.93
2023-01-17T00:39:29.113Z,16.55
2023-01-17T00:41:31.098Z,16.73
2023-01-17T00:43:51.510Z,17.40
2023-01-17T00:46:12.390Z,16.65
2023-01-17T00:48:33.133Z,16.55
2023-01-17T00:50:55.924Z,17.13
2023-01-17T00:53:16.592Z,17.35
2023-01-17T00:55:37.261Z,16.90
2023-01-17T00:57:57.951Z,15.52
2023-01-17T01:00:18.812Z,16.33
2023-01-17T01:02:39.601Z,15.90
2023-01-17T01:05:00.558Z,15.93
2023-01-17T01:07:21.269Z,15.27
2023-01-17T01:09:42.099Z,15.40
2023-01-17T01:12:02.917Z,15.55
2023-01-17T01:14:24.580Z,15.18
2023-01-17T01:16:45.342Z,15.90
2023-01-17T01:19:05.872Z,16.67
2023-01-17T01:21:26.488Z,16.05
2023-01-17T01:23:47.177Z,15.65
2023-01-17T01:26:07.940Z,17.05
2023-01-17T01:28:31.093Z,18.05
2023-01-17T01:33:12.147Z,17.45
2023-01-17T01:35:14.281Z,18.10
2023-01-17T01:37:16.304Z,17.73
2023-01-17T01:39:18.440Z,18.42
2023-01-17T01:41:20.677Z,17.85
2023-01-17T01:43:50.513Z,17.45
2023-01-17T01:45:55.660Z,18.45
2023-01-17T01:48:06.182Z,17.95
2023-01-17T01:50:10.700Z,18.27
2023-01-17T01:52:12.828Z,19.15
2023-01-17T01:54:22.636Z,20.25
2023-01-17T01:56:24.717Z,17.20
2023-01-17T01:58:28.676Z,16.88
2023-01-17T02:00:34.818Z,18.63
2023-01-17T02:02:36.885Z,18.60
2023-01-17T02:04:39.013Z,18.38
2023-01-17T02:06:50.346Z,17.70
2023-01-17T02:08:52.374Z,18.95
2023-01-17T02:10:54.541Z,18.83
2023-01-17T02:12:56.553Z,18.15
2023-01-17T02:14:59.105Z,19.02
2023-01-17T02:17:06.706Z,17.95
2023-01-17T02:19:30.944Z,18.55
2023-01-17T02:21:38.920Z,17.23
2023-01-17T02:24:05.863Z,18.33
2023-01-17T02:26:44.803Z,19.00
2023-01-17T02:29:24.280Z,17.50
2023-01-17T02:31:32.518Z,18.10
2023-01-17T02:34:01.391Z,18.48
2023-01-17T02:36:25.605Z,19.08
2023-01-17T02:38:50.005Z,18.25
2023-01-17T02:41:11.942Z,18.83
2023-01-17T02:43:16.362Z,18.45
2023-01-17T02:45:19.529Z,18.83
2023-01-17T02:47:27.414Z,20.15
2023-01-17T02:49:30.453Z,18.70
2023-01-17T02:51:56.365Z,19.27
2023-01-17T02:54:28.432Z,19.00
2023-01-17T02:56:54.605Z,19.75
2023-01-17T02:59:16.765Z,19.60
2023-01-17T03:01:39.008Z,19.80
2023-01-17T03:04:21.739Z,18.93
2023-01-17T03:06:50.034Z,19.38
2023-01-17T03:08:52.135Z,19.20
2023-01-17T03:10:54.290Z,20.90
2023-01-17T03:12:59.115Z,18.88
2023-01-17T03:15:01.220Z,19.83
2023-01-17T03:17:03.381Z,20.77
2023-01-17T03:19:05.485Z,19.48
2023-01-17T03:21:07.598Z,19.58
2023-01-17T03:23:09.693Z,19.23
2023-01-17T03:25:11.762Z,19.20
2023-01-17T03:27:13.848Z,18.60
2023-01-17T03:29:16.707Z,18.77
2023-01-17T03:31:20.105Z,20.20
2023-01-17T03:33:22.252Z,19.90
2023-01-17T03:35:24.270Z,19.85
2023-01-17T03:37:26.432Z,19.10
2023-01-17T03:39:28.449Z,20.05
2023-01-17T03:41:30.483Z,19.13
2023-01-17T03:43:32.535Z,18.85
2023-01-17T03:45:35.119Z,19.77
2023-01-17T03:47:37.198Z,19.15
2023-01-17T03:49:39.980Z,18.52
2023-01-17T03:51:42.139Z,19.52
2023-01-17T03:53:46.908Z,18.75
2023-01-17T03:55:49.007Z,19.42
2023-01-17T03:57:51.171Z,18.40
2023-01-17T03:59:53.203Z,19.05
2023-01-17T04:01:55.283Z,20.50
2023-01-17T04:03:57.381Z,20.83
2023-01-17T04:05:59.435Z,20.38
2023-01-17T04:08:01.474Z,19.60
2023-01-17T04:10:03.925Z,20.00
2023-01-17T04:12:06.120Z,19.15
2023-01-17T04:14:08.144Z,20.33
2023-01-17T04:16:13.465Z,19.20
2023-01-17T04:18:17.016Z,19.98
2023-01-17T04:20:37.525Z,21.33
2023-01-17T04:22:39.639Z,20.92
2023-01-17T04:24:41.716Z,22.33
2023-01-17T04:26:43.745Z,22.33
2023-01-17T04:28:45.820Z,22.50
2023-01-17T04:30:47.929Z,22.67
2023-01-17T04:32:50.273Z,24.92
2023-01-17T04:34:52.429Z,23.58
2023-01-17T04:36:54.571Z,25.55
2023-01-17T04:38:56.571Z,25.30
2023-01-17T04:40:58.703Z,23.90
2023-01-17T04:43:00.820Z,27.80
2023-01-17T04:45:03.162Z,27.85
2023-01-17T04:47:05.384Z,27.95
2023-01-17T04:49:07.440Z,27.13
2023-01-17T04:51:09.527Z,27.50
2023-01-17T04:53:11.581Z,26.98
2023-01-17T04:55:13.665Z,28.88
2023-01-17T04:57:19.145Z,28.45
2023-01-17T04:59:21.670Z,27.85
2023-01-17T05:01:23.893Z,27.73
2023-01-17T05:03:25.992Z,27.50
2023-01-17T05:05:28.026Z,25.65
2023-01-17T05:07:30.043Z,26.33
2023-01-17T05:09:32.124Z,25.60
2023-01-17T05:11:34.220Z,25.88
2023-01-17T05:13:36.263Z,25.60
2023-01-17T05:15:38.435Z,25.13
2023-01-17T05:17:40.523Z,26.17
2023-01-17T05:19:42.527Z,24.95
2023-01-17T05:21:44.562Z,25.02
2023-01-17T05:23:46.948Z,25.17
2023-01-17T05:25:48.956Z,23.63
2023-01-17T05:27:51.057Z,22.75
2023-01-17T05:29:53.177Z,22.10
2023-01-17T05:31:55.133Z,22.48
2023-01-17T05:33:57.204Z,22.95
2023-01-17T05:35:59.431Z,22.52
2023-01-17T05:38:01.533Z,20.73
2023-01-17T05:40:03.820Z,21.00
2023-01-17T05:42:05.917Z,20.45
2023-01-17T05:44:07.995Z,22.30
2023-01-17T05:46:10.037Z,21.17
2023-01-17T05:48:12.167Z,21.52
2023-01-17T05:50:34.472Z,21.30
2023-01-17T05:52:36.462Z,21.30
2023-01-17T05:54:38.519Z,21.38
2023-01-17T05:56:40.534Z,21.30
2023-01-17T05:58:42.567Z,20.60
2023-01-17T06:00:44.955Z,21.08
2023-01-17T06:02:47.131Z,20.55
2023-01-17T06:04:49.210Z,20.10
2023-01-17T06:06:51.352Z,20.65
2023-01-17T06:08:53.433Z,22.27
2023-01-17T06:10:55.578Z,25.70
2023-01-17T06:13:07.521Z,26.17
2023-01-17T06:15:10.109Z,26.95
2023-01-17T06:19:14.086Z,24.83
2023-01-17T06:21:16.132Z,25.55
2023-01-17T06:23:18.248Z,24.25
2023-01-17T06:25:20.378Z,23.52
2023-01-17T06:27:22.474Z,24.75
2023-01-17T06:29:24.601Z,24.02
2023-01-17T06:31:26.799Z,22.23
2023-01-17T06:33:28.864Z,23.88
2023-01-17T06:35:31.176Z,23.35
2023-01-17T06:37:33.365Z,22.83
2023-01-17T06:39:35.432Z,22.88
2023-01-17T06:41:37.431Z,23.02
2023-01-17T06:43:40.115Z,22.80
2023-01-17T06:47:44.271Z,23.45
2023-01-17T06:49:46.414Z,22.67
2023-01-17T06:51:48.428Z,23.30
2023-01-17T06:53:50.490Z,23.25
2023-01-17T06:55:56.138Z,25.20
2023-01-17T06:57:59.653Z,22.30
2023-01-17T07:00:02.179Z,23.33
2023-01-17T07:04:06.546Z,21.33
2023-01-17T07:06:09.642Z,21.90
2023-01-17T07:08:11.807Z,23.05
2023-01-17T07:10:14.414Z,24.00
2023-01-17T07:14:18.456Z,22.70
2023-01-17T07:16:20.678Z,21.92
2023-01-17T07:18:25.705Z,22.92
2023-01-17T07:20:27.873Z,22.42
2023-01-17T07:22:30.029Z,23.50
2023-01-17T07:24:33.044Z,23.30
2023-01-17T07:26:37.830Z,23.77
2023-01-17T07:28:39.897Z,23.17
2023-01-17T07:30:41.945Z,23.27
2023-01-17T07:32:44.054Z,23.30
2023-01-17T07:34:46.082Z,21.35
2023-01-17T07:36:49.782Z,24.20
2023-01-17T07:38:51.900Z,22.45
2023-01-17T07:40:58.199Z,22.40
2023-01-17T07:43:03.627Z,23.42
2023-01-17T07:45:06.812Z,21.88
2023-01-17T07:47:08.839Z,21.45
2023-01-17T07:49:10.939Z,21.05
2023-01-17T07:51:13.126Z,22.85
2023-01-17T07:53:15.280Z,22.70
2023-01-17T07:55:17.724Z,21.98
2023-01-17T07:57:19.944Z,23.25
2023-01-17T07:59:22.017Z,21.20
2023-01-17T08:01:24.291Z,23.30
2023-01-17T08:03:32.408Z,21.58
2023-01-17T08:05:34.606Z,20.55
2023-01-17T08:07:36.773Z,20.90
2023-01-17T08:09:38.803Z,21.30
2023-01-17T08:11:40.868Z,21.17
2023-01-17T08:13:43.138Z,21.67
2023-01-17T08:15:47.626Z,19.73
2023-01-17T08:17:53.369Z,19.88
2023-01-17T08:19:55.450Z,19.13
2023-01-17T08:21:57.560Z,20.13
2023-01-17T08:23:59.721Z,19.08
2023-01-17T08:26:01.953Z,18.95
2023-01-17T08:28:05.393Z,19.02
2023-01-17T08:30:08.591Z,19.33
2023-01-17T08:32:10.621Z,19.23
2023-01-17T08:34:14.246Z,19.90
2023-01-17T08:36:16.396Z,18.88
2023-01-17T08:38:18.734Z,18.73
2023-01-17T08:40:20.817Z,19.77
2023-01-17T08:42:22.844Z,18.02
2023-01-17T08:44:25.035Z,19.50
2023-01-17T08:46:27.105Z,19.85
2023-01-17T08:48:29.128Z,18.08
2023-01-17T08:50:31.171Z,19.20
2023-01-17T08:52:33.604Z,17.90
2023-01-17T08:54:35.654Z,18.40
2023-01-17T08:56:37.719Z,18.30
2023-01-17T08:58:41.488Z,18.67
2023-01-17T09:00:43.620Z,18.02
2023-01-17T09:02:45.675Z,17.27
2023-01-17T09:04:48.951Z,17.55
2023-01-17T09:06:50.962Z,16.80
2023-01-17T09:08:54.905Z,16.85
2023-01-17T09:10:56.947Z,15.88
2023-01-17T09:12:58.945Z,16.83
2023-01-17T09:15:02.439Z,16.50
2023-01-17T09:17:06.884Z,18.10
2023-01-17T09:19:09.533Z,16.85
2023-01-17T09:23:18.508Z,14.75
2023-01-17T09:25:20.535Z,15.55
2023-01-17T09:27:22.566Z,14.32
2023-01-17T09:29:24.722Z,14.30
2023-01-17T09:31:27.302Z,14.20
2023-01-17T09:33:29.373Z,13.85
2023-01-17T09:35:31.763Z,13.48
2023-01-17T09:37:33.840Z,13.60
2023-01-17T09:39:35.932Z,13.43
2023-01-17T09:42:11.033Z,13.38
2023-01-17T09:44:33.661Z,12.07
2023-01-17T09:46:45.102Z,13.63
2023-01-17T09:48:47.129Z,12.75
2023-01-17T09:50:54.893Z,12.38
2023-01-17T09:53:07.211Z,11.50
2023-01-17T09:55:14.790Z,11.50
2023-01-17T09:57:58.026Z,10.88
2023-01-17T10:00:34.154Z,12.43
2023-01-17T10:03:01.388Z,10.93
2023-01-17T10:05:34.519Z,9.88
2023-01-17T10:08:16.546Z,10.05
2023-01-17T10:10:42.442Z,10.70
2023-01-17T10:13:05.086Z,9.27
2023-01-17T10:15:57.030Z,9.98
2023-01-17T10:18:29.905Z,9.52
2023-01-17T10:20:53.989Z,10.38
2023-01-17T10:23:12.694Z,9.90
2023-01-17T10:25:52.585Z,9.82
2023-01-17T10:27:58.452Z,10.32
2023-01-17T10:30:03.029Z,9.00
2023-01-17T10:32:05.512Z,9.07
2023-01-17T10:34:19.773Z,9.35
2023-01-17T10:36:38.016Z,9.68
2023-01-17T10:38:42.024Z,8.93
2023-01-17T10:40:54.926Z,8.93
2023-01-17T10:45:18.696Z,8.52
2023-01-17T10:47:23.087Z,9.23
2023-01-17T10:49:26.347Z,8.88
2023-01-17T10:52:00.182Z,8.98
2023-01-17T10:54:36.082Z,9.00
2023-01-17T10:56:38.165Z,8.52
2023-01-17T10:58:40.257Z,8.73
2023-01-17T11:01:00.147Z,8.73
2023-01-17T11:03:02.328Z,9.60
2023-01-17T11:05:15.981Z,9.10
2023-01-17T11:07:24.100Z,9.07
2023-01-17T11:09:42.093Z,9.02
2023-01-17T11:11:50.410Z,8.73
2023-01-17T11:13:53.645Z,7.50
2023-01-17T11:16:07.835Z,7.70
2023-01-17T11:18:16.474Z,7.82
2023-01-17T11:20:38.853Z,7.60
2023-01-17T11:22:43.354Z,8.52
2023-01-17T11:24:53.338Z,7.82
2023-01-17T11:26:55.395Z,7.32
2023-01-17T11:29:35.894Z,6.80
2023-01-17T11:31:38.809Z,6.68
2023-01-17T11:33:49.204Z,6.60
2023-01-17T11:35:51.227Z,6.05
2023-01-17T11:38:20.161Z,5.90
2023-01-17T11:40:41.294Z,5.70
2023-01-17T11:42:43.437Z,6.03
2023-01-17T11:44:45.445Z,5.63
2023-01-17T11:46:47.605Z,5.38
2023-01-17T11:48:56.357Z,5.15
2023-01-17T11:50:59.393Z,5.55
2023-01-17T11:53:18.081Z,5.57
2023-01-17T11:55:23.054Z,5.30
2023-01-17T11:57:31.105Z,5.82
2023-01-17T11:59:40.344Z,5.45
2023-01-17T12:01:57.623Z,5.85
2023-01-17T12:04:41.049Z,4.63
2023-01-17T12:07:06.748Z,5.18
2023-01-17T12:09:23.049Z,4.40
2023-01-17T12:12:42.133Z,4.72
2023-01-17T12:14:57.023Z,4.40
2023-01-17T12:17:45.547Z,4.45
2023-01-17T12:20:01.326Z,4.35
2023-01-17T12:22:34.052Z,4.18
2023-01-17T12:24:39.552Z,4.43
2023-01-17T12:27:12.793Z,5.85
2023-01-17T12:29:45.587Z,5.03
2023-01-17T12:32:03.046Z,5.07
2023-01-17T12:34:30.086Z,5.72
2023-01-17T12:36:48.412Z,4.70
2023-01-17T12:38:50.588Z,5.25
2023-01-17T12:41:23.494Z,4.90
2023-01-17T12:43:42.177Z,4.55
2023-01-17T12:45:45.825Z,5.57
2023-01-17T12:47:52.023Z,5.10
2023-01-17T12:50:20.295Z,5.78
2023-01-17T12:52:46.196Z,4.60
2023-01-17T12:54:52.400Z,4.20
2023-01-17T12:57:14.913Z,5.38
2023-01-17T12:59:26.369Z,4.25
2023-01-17T13:01:43.094Z,5.38
2023-01-17T13:04:00.354Z,6.88
2023-01-17T13:06:02.837Z,4.93
2023-01-17T13:08:36.674Z,5.20
2023-01-17T13:10:51.173Z,5.90
2023-01-17T13:12:54.716Z,4.45
2023-01-17T13:14:56.779Z,4.70
2023-01-17T13:17:42.789Z,4.10
2023-01-17T13:19:54.848Z,4.50
2023-01-17T13:21:56.951Z,5.13
2023-01-17T13:24:02.231Z,4.85
2023-01-17T13:26:04.596Z,4.78
2023-01-17T13:28:56.986Z,5.43
2023-01-17T13:31:18.485Z,4.35
2023-01-17T13:33:27.060Z,3.58
2023-01-17T13:36:07.128Z,3.47
2023-01-17T13:38:39.742Z,3.35
2023-01-17T13:40:55.847Z,4.57
2023-01-17T13:43:02.709Z,4.15
2023-01-17T13:45:49.684Z,4.78
2023-01-17T13:47:52.965Z,4.32
2023-01-17T13:49:56.830Z,5.40
2023-01-17T13:52:10.994Z,7.63
2023-01-17T13:54:32.919Z,4.32
2023-01-17T13:56:35.337Z,5.60
2023-01-17T13:58:54.982Z,5.07
2023-01-17T14:00:57.112Z,5.80
2023-01-17T14:02:59.194Z,6.18
2023-01-17T14:05:23.422Z,6.47
2023-01-17T14:07:26.366Z,4.05
2023-01-17T14:09:37.838Z,5.57
2023-01-17T14:12:00.260Z,5.20
2023-01-17T14:14:39.600Z,7.82
2023-01-17T14:16:41.681Z,5.90
2023-01-17T14:18:43.853Z,6.60
2023-01-17T14:20:49.184Z,5.82
2023-01-17T14:22:51.953Z,6.28
2023-01-17T14:25:09.964Z,5.55
2023-01-17T14:27:16.789Z,4.95
2023-01-17T14:29:48.692Z,4.80
2023-01-17T14:31:51.524Z,3.90
2023-01-17T14:33:54.288Z,3.97
2023-01-17T14:38:29.512Z,4.63
2023-01-17T14:40:36.005Z,3.67
2023-01-17T14:42:38.026Z,3.78
2023-01-17T14:44:40.047Z,3.55
2023-01-17T14:46:42.056Z,4.45
2023-01-17T14:48:44.252Z,5.07
2023-01-17T14:50:48.650Z,4.45
2023-01-17T14:53:15.713Z,6.45
2023-01-17T14:55:19.457Z,4.43
2023-01-17T14:57:29.279Z,3.80
2023-01-17T14:59:31.365Z,4.10
2023-01-17T15:01:33.696Z,4.45
2023-01-17T15:05:53.347Z,4.85
2023-01-17T15:07:56.729Z,5.30
2023-01-17T15:09:58.754Z,6.10
2023-01-17T15:12:00.871Z,5.93
2023-01-17T15:14:05.947Z,5.03
2023-01-17T15:16:17.827Z,4.95
2023-01-17T15:18:26.869Z,4.82
2023-01-17T15:20:29.005Z,5.55
2023-01-17T15:22:31.041Z,5.10
2023-01-17T15:24:34.624Z,4.68
2023-01-17T15:26:44.735Z,6.65
2023-01-17T15:28:47.102Z,5.57
2023-01-17T15:31:15.488Z,6.30
2023-01-17T15:33:21.183Z,6.28
2023-01-17T15:35:23.683Z,6.72
2023-01-17T15:37:39.895Z,9.05
2023-01-17T15:39:42.005Z,7.30
2023-01-17T15:41:44.063Z,6.35
2023-01-17T15:43:46.159Z,6.18
2023-01-17T15:45:58.637Z,8.32
2023-01-17T15:48:40.631Z,6.80
2023-01-17T15:50:42.702Z,6.40
2023-01-17T15:52:52.038Z,6.43
2023-01-17T15:55:12.556Z,5.68
2023-01-17T15:57:24.607Z,5.78
2023-01-17T16:00:06.143Z,6.10
2023-01-17T16:02:25.973Z,6.25
2023-01-17T16:04:34.899Z,6.07
2023-01-17T16:06:45.782Z,5.53
2023-01-17T16:08:52.579Z,5.68
2023-01-17T16:10:58.615Z,5.75
2023-01-17T16:13:00.708Z,6.97
2023-01-17T16:15:12.519Z,7.50
2023-01-17T16:17:16.712Z,7.07
2023-01-17T16:19:18.902Z,6.82
2023-01-17T16:21:27.345Z,6.82
2023-01-17T16:23:29.412Z,6.63
2023-01-17T16:25:37.457Z,7.00
2023-01-17T16:27:41.515Z,7.63
2023-01-17T16:29:43.556Z,6.53
2023-01-17T16:31:45.590Z,6.70
2023-01-17T16:33:49.742Z,7.78
2023-01-17T16:35:53.908Z,6.85
2023-01-17T16:38:02.234Z,9.73
2023-01-17T16:40:04.885Z,9.90
2023-01-17T16:42:11.353Z,10.32
2023-01-17T16:44:13.577Z,9.02
2023-01-17T16:46:15.728Z,9.15
2023-01-17T16:48:19.349Z,7.70
2023-01-17T16:50:24.483Z,5.97
2023-01-17T16:52:26.622Z,6.13
2023-01-17T16:54:28.646Z,5.30
2023-01-17T16:56:30.697Z,5.80
2023-01-17T16:58:32.787Z,6.00
2023-01-17T17:00:34.806Z,5.97
2023-01-17T17:02:38.668Z,6.25
2023-01-17T17:04:41.948Z,5.53
2023-01-17T17:06:43.964Z,6.18
2023-01-17T17:08:46.051Z,5.60
2023-01-17T17:10:48.114Z,5.50
2023-01-17T17:12:50.201Z,4.70
2023-01-17T17:14:52.226Z,5.60
2023-01-17T17:16:54.380Z,4.20
2023-01-17T17:19:04.762Z,5.40
2023-01-17T17:21:06.912Z,3.92
2023-01-17T17:23:10.191Z,3.63
2023-01-17T17:25:12.429Z,4.22
2023-01-17T17:27:14.461Z,3.67
2023-01-17T17:29:16.603Z,3.90
2023-01-17T17:31:18.724Z,4.43
2023-01-17T17:37:05.555Z,5.50
2023-01-17T17:39:09.367Z,6.63
2023-01-17T17:41:11.465Z,6.10
2023-01-17T17:43:13.986Z,5.20
2023-01-17T17:45:16.305Z,5.75
2023-01-17T17:47:18.364Z,5.03
2023-01-17T17:49:22.762Z,5.60
2023-01-17T17:51:35.195Z,5.00
2023-01-17T17:53:37.315Z,5.63
2023-01-17T17:55:41.065Z,6.80
2023-01-17T17:57:43.219Z,6.85
2023-01-17T17:59:45.381Z,7.93
2023-01-17T18:01:48.087Z,6.20
2023-01-17T18:05:53.460Z,7.55
2023-01-17T18:07:56.085Z,6.07
2023-01-17T18:12:00.579Z,4.63
2023-01-17T18:14:03.872Z,4.82
2023-01-17T18:16:14.753Z,4.30
2023-01-17T18:18:17.312Z,4.68
2023-01-17T18:20:20.255Z,5.28
2023-01-17T18:24:25.113Z,5.18
2023-01-17T18:26:32.704Z,5.38
2023-01-17T18:28:34.860Z,6.18
2023-01-17T18:30:38.576Z,6.43
2023-01-17T18:32:41.946Z,6.13
2023-01-17T18:34:45.095Z,5.88
2023-01-17T18:36:47.666Z,9.13
2023-01-17T18:40:51.903Z,10.18
2023-01-17T18:42:54.403Z,10.63
2023-01-17T18:44:56.597Z,11.70
2023-01-17T18:47:02.095Z,11.07
2023-01-17T18:49:04.771Z,9.32
2023-01-17T18:53:11.531Z,7.68
2023-01-17T18:55:13.665Z,8.98
2023-01-17T18:57:15.852Z,8.95
2023-01-17T18:59:23.602Z,8.40
2023-01-17T19:01:28.704Z,7.95
2023-01-17T19:03:31.610Z,8.73
2023-01-17T19:05:36.241Z,8.30
2023-01-17T19:07:38.233Z,8.40
2023-01-17T19:09:40.359Z,8.43
2023-01-17T19:11:44.580Z,8.70
2023-01-17T19:13:46.704Z,8.68
2023-01-17T19:15:48.756Z,8.40
2023-01-17T19:17:50.751Z,9.10
2023-01-17T19:19:52.798Z,10.85
2023-01-17T19:21:54.928Z,10.25
2023-01-17T19:23:57.702Z,10.63
2023-01-17T19:25:59.737Z,10.25
2023-01-17T19:28:01.894Z,9.55
2023-01-17T19:30:04.420Z,10.43
2023-01-17T19:32:07.463Z,9.27
2023-01-17T19:34:09.970Z,11.18
2023-01-17T19:36:17.060Z,10.48
2023-01-17T19:38:19.077Z,12.75
2023-01-17T19:40:21.264Z,10.50
2023-01-17T19:42:23.385Z,12.07
2023-01-17T19:44:25.506Z,11.32
2023-01-17T19:46:28.553Z,9.82
2023-01-17T19:48:30.799Z,8.65
2023-01-17T19:50:33.125Z,8.90
2023-01-17T19:52:35.851Z,8.48
2023-01-17T19:56:40.017Z,10.00
2023-01-17T19:58:42.442Z,9.43
2023-01-17T20:00:46.793Z,10.35
2023-01-17T20:02:49.037Z,10.75
2023-01-17T20:04:51.258Z,10.00
2023-01-17T20:06:53.613Z,10.63
2023-01-17T20:08:55.713Z,10.65
2023-01-17T20:11:05.483Z,11.13
2023-01-17T20:13:07.558Z,11.00
2023-01-17T20:15:10.007Z,10.35
2023-01-17T20:17:12.304Z,11.20
2023-01-17T20:19:14.384Z,10.98
2023-01-17T20:21:24.973Z,11.45
2023-01-17T20:23:27.054Z,13.00
2023-01-17T20:25:33.478Z,13.25
2023-01-17T20:27:36.648Z,11.52
2023-01-17T20:29:40.759Z,12.15
2023-01-17T20:31:43.303Z,10.85
2023-01-17T20:33:47.402Z,12.98
2023-01-17T20:35:55.573Z,13.38
2023-01-17T20:38:10.480Z,12.32
2023-01-17T20:40:12.963Z,12.95
2023-01-17T20:42:15.102Z,12.73
2023-01-17T20:44:19.770Z,12.35
2023-01-17T20:46:24.321Z,13.18
2023-01-17T20:48:26.611Z,13.88
2023-01-17T20:54:26.976Z,11.73
2023-01-17T20:56:34.748Z,11.68
2023-01-17T20:58:38.778Z,11.63
2023-01-17T21:00:41.335Z,11.27
2023-01-17T21:02:43.738Z,11.52
2023-01-17T21:04:46.075Z,11.30
2023-01-17T21:06:51.667Z,11.95
2023-01-17T21:08:53.776Z,12.48
2023-01-17T21:10:55.932Z,11.38
2023-01-17T21:13:00.922Z,11.60
2023-01-17T21:15:03.043Z,11.95
2023-01-17T21:17:05.156Z,12.25
2023-01-17T21:19:12.022Z,14.10
2023-01-17T21:21:22.020Z,13.32
2023-01-17T21:23:29.333Z,11.88
2023-01-17T21:25:32.790Z,12.30
2023-01-17T21:27:36.667Z,12.30
2023-01-17T21:29:39.038Z,11.70
2023-01-17T21:31:42.910Z,11.43
2023-01-17T21:33:45.353Z,13.18
2023-01-17T21:35:47.743Z,13.15
2023-01-17T21:37:50.395Z,14.52
2023-01-17T21:42:05.517Z,19.08
2023-01-17T21:44:13.419Z,18.10
2023-01-17T21:59:00.993Z,27.17
2023-01-17T22:03:37.245Z,18.27
2023-01-17T22:06:05.044Z,18.13
2023-01-17T22:11:37.730Z,16.67
2023-01-17T23:02:50.304Z,15.90
2023-01-17T23:12:56.038Z,16.98
2023-01-17T23:18:18.137Z,18.75
2023-01-17T23:22:44.396Z,22.25
2023-01-17T23:25:28.038Z,21.40
2023-01-17T23:28:21.595Z,18.83
